Jean Lafitte — WDE2505 — position and weather

sailwx.info

Track history (hours):
 
Tides and Currents Weather Stations Pressure Air Temp Water Temp Dewpoint Dewpoint Depression Visibility Wind Speed Wind Dir Waves Ship Positions

Jean Lafitte

Owner: Turn Services, New Orleans, LA. More information available from US FCC via Universal Licensing System and Coast Guard Vessel Documentation Center.

Last reported at 2014-Nov-19 19:28 UTC. Time now 2014-Nov-22 08:56 UTC.
Position N 29°56' W 089°59'.

Length 18 m; draft 2.5 m.

Type: Tug. MMSI: 367326210.

Date/timePositionNaut miles runAvg speedWind from/ knotsBaromVisibWave heightAir tempDewpointWater temp
2014-Nov-19 19:28N 29°56' W 089°59'6 2.1
2014-Nov-19 16:24N 29°51' W 090°04'1 1.1
2014-Nov-19 15:24N 29°52' W 090°04'0 0.4
2014-Nov-19 14:33N 29°53' W 090°04'0 0.0
2014-Nov-19 00:12N 29°53' W 090°04'0 0.0
2014-Nov-18 23:33N 29°53' W 090°04'0 0.0
2014-Nov-18 22:32N 29°53' W 090°04'0 0.0
2014-Nov-18 21:32N 29°53' W 090°04'0 0.0
2014-Nov-18 20:31N 29°53' W 090°04'0 0.0
2014-Nov-17 15:22N 29°53' W 090°04'0 0.1
2014-Nov-17 14:33N 29°53' W 090°04'0 0.0
2014-Nov-17 13:26N 29°53' W 090°04'0 0.0
2014-Nov-17 12:33N 29°53' W 090°04'0 0.0
2014-Nov-17 11:32N 29°53' W 090°04'0 0.0
2014-Nov-17 10:33N 29°53' W 090°04'0 0.0
2014-Nov-17 09:30N 29°53' W 090°04'0 0.0
2014-Nov-17 08:32N 29°53' W 090°04'0 0.0
2014-Nov-17 07:32N 29°53' W 090°04'0 0.0
2014-Nov-17 06:29N 29°53' W 090°04'0 0.0
2014-Nov-17 05:31N 29°53' W 090°04'  
2014-Nov-11 13:33N 29°39' W 089°57'1 1.4
2014-Nov-11 12:29N 29°38' W 089°55'2 0.5
2014-Nov-11 07:16N 29°40' W 089°58'2 2.2
2014-Nov-11 06:11N 29°38' W 089°56'0 0.5
2014-Nov-11 05:28N 29°38' W 089°55'  
Track history (hours):
 
Tides and Currents Weather Stations Pressure Air Temp Water Temp Dewpoint Dewpoint Depression Visibility Wind Speed Wind Dir Waves Ship Positions

Jean Lafitte

Owner: Turn Services, New Orleans, LA. More information available from US FCC via Universal Licensing System and Coast Guard Vessel Documentation Center.

Last reported at 2014-Nov-19 19:28 UTC. Time now 2014-Nov-22 08:56 UTC.
Position N 29°56' W 089°59'.

Length 18 m; draft 2.5 m.

Type: Tug. MMSI: 367326210.

Date/timePositionNaut miles runAvg speedWind from/ knotsBaromVisibWave heightAir tempDewpointWater temp
2014-Nov-19 19:28N 29°56' W 089°59'6 2.1
2014-Nov-19 16:24N 29°51' W 090°04'1 1.1
2014-Nov-19 15:24N 29°52' W 090°04'0 0.4
2014-Nov-19 14:33N 29°53' W 090°04'0 0.0
2014-Nov-19 00:12N 29°53' W 090°04'0 0.0
2014-Nov-18 23:33N 29°53' W 090°04'0 0.0
2014-Nov-18 22:32N 29°53' W 090°04'0 0.0
2014-Nov-18 21:32N 29°53' W 090°04'0 0.0
2014-Nov-18 20:31N 29°53' W 090°04'0 0.0
2014-Nov-17 15:22N 29°53' W 090°04'0 0.1
2014-Nov-17 14:33N 29°53' W 090°04'0 0.0
2014-Nov-17 13:26N 29°53' W 090°04'0 0.0
2014-Nov-17 12:33N 29°53' W 090°04'0 0.0
2014-Nov-17 11:32N 29°53' W 090°04'0 0.0
2014-Nov-17 10:33N 29°53' W 090°04'0 0.0
2014-Nov-17 09:30N 29°53' W 090°04'0 0.0
2014-Nov-17 08:32N 29°53' W 090°04'0 0.0
2014-Nov-17 07:32N 29°53' W 090°04'0 0.0
2014-Nov-17 06:29N 29°53' W 090°04'0 0.0
2014-Nov-17 05:31N 29°53' W 090°04'  
2014-Nov-11 13:33N 29°39' W 089°57'1 1.4
2014-Nov-11 12:29N 29°38' W 089°55'2 0.5
2014-Nov-11 07:16N 29°40' W 089°58'2 2.2
2014-Nov-11 06:11N 29°38' W 089°56'0 0.5
2014-Nov-11 05:28N 29°38' W 089°55'  

Dump ship's entire track history